createdAt,value
2023-12-12T00:00:01.888Z,9.10
2023-12-12T00:02:29.719Z,9.10
2023-12-12T00:04:57.601Z,9.10
2023-12-12T00:07:25.513Z,9.10
2023-12-12T00:09:54.715Z,9.10
2023-12-12T00:12:22.654Z,9.10
2023-12-12T00:14:50.538Z,9.10
2023-12-12T00:17:18.372Z,9.10
2023-12-12T00:19:46.446Z,9.10
2023-12-12T00:22:14.410Z,9.00
2023-12-12T00:24:42.238Z,9.00
2023-12-12T00:27:11.396Z,9.00
2023-12-12T00:29:39.609Z,9.00
2023-12-12T00:32:07.719Z,9.00
2023-12-12T00:34:37.317Z,8.90
2023-12-12T00:37:05.511Z,8.90
2023-12-12T00:39:33.797Z,8.90
2023-12-12T00:42:01.823Z,8.90
2023-12-12T00:44:30.954Z,8.90
2023-12-12T00:46:58.883Z,8.80
2023-12-12T00:49:26.967Z,8.80
2023-12-12T00:51:54.940Z,8.80
2023-12-12T00:54:22.833Z,8.80
2023-12-12T00:56:50.635Z,8.90
2023-12-12T00:59:18.467Z,8.80
2023-12-12T01:01:47.638Z,8.80
2023-12-12T01:04:15.682Z,8.70
2023-12-12T01:06:43.624Z,8.70
2023-12-12T01:09:11.432Z,8.60
2023-12-12T01:11:39.342Z,8.60
2023-12-12T01:14:07.149Z,8.60
2023-12-12T01:16:35.015Z,8.60
2023-12-12T01:19:04.714Z,8.60
2023-12-12T01:21:33.676Z,8.60
2023-12-12T01:24:01.473Z,8.60
2023-12-12T01:26:29.297Z,8.60
2023-12-12T01:28:57.100Z,8.50
2023-12-12T01:31:24.907Z,8.60
2023-12-12T01:33:53.415Z,8.60
2023-12-12T01:36:22.657Z,8.50
2023-12-12T01:38:50.496Z,8.50
2023-12-12T01:41:19.432Z,8.50
2023-12-12T01:43:47.237Z,8.50
2023-12-12T01:46:17.045Z,8.60
2023-12-12T01:48:45.029Z,8.60
2023-12-12T01:51:12.881Z,8.60
2023-12-12T01:53:44.309Z,8.50
2023-12-12T01:56:12.429Z,8.50
2023-12-12T01:58:40.529Z,8.50
2023-12-12T02:01:08.415Z,8.50
2023-12-12T02:03:36.893Z,8.40
2023-12-12T02:06:05.880Z,8.40
2023-12-12T02:08:33.890Z,8.40
2023-12-12T02:11:03.151Z,8.40
2023-12-12T02:13:31.115Z,8.30
2023-12-12T02:15:59.088Z,8.30
2023-12-12T02:18:27.033Z,8.30
2023-12-12T02:20:55.007Z,8.30
2023-12-12T02:23:24.142Z,8.20
2023-12-12T02:25:52.290Z,8.20
2023-12-12T02:28:20.132Z,8.20
2023-12-12T02:30:48.009Z,8.20
2023-12-12T02:33:15.867Z,8.10
2023-12-12T02:35:43.839Z,8.10
2023-12-12T02:38:11.633Z,8.10
2023-12-12T02:40:40.862Z,8.10
2023-12-12T02:43:08.712Z,8.10
2023-12-12T02:45:36.646Z,8.00
2023-12-12T02:48:04.755Z,8.00
2023-12-12T02:50:32.606Z,8.00
2023-12-12T02:52:59.498Z,8.00
2023-12-12T02:55:27.375Z,8.00
2023-12-12T02:57:56.545Z,7.90
2023-12-12T03:00:24.553Z,7.90
2023-12-12T03:02:52.417Z,7.90
2023-12-12T03:05:20.427Z,7.90
2023-12-12T03:07:48.272Z,7.90
2023-12-12T03:10:16.291Z,7.90
2023-12-12T03:12:44.320Z,7.80
2023-12-12T03:15:13.787Z,7.80
2023-12-12T03:17:41.758Z,7.80
2023-12-12T03:20:10.630Z,7.80
2023-12-12T03:22:38.576Z,7.90
2023-12-12T03:25:09.242Z,7.90
2023-12-12T03:27:37.262Z,7.90
2023-12-12T03:30:05.518Z,7.90
2023-12-12T03:32:34.687Z,7.80
2023-12-12T03:35:02.587Z,7.80
2023-12-12T03:37:30.707Z,7.80
2023-12-12T03:39:58.734Z,7.80
2023-12-12T03:42:26.569Z,7.80
2023-12-12T03:44:54.360Z,7.80
2023-12-12T03:47:22.239Z,7.80
2023-12-12T03:49:51.442Z,7.80
2023-12-12T03:52:19.371Z,7.80
2023-12-12T03:54:47.254Z,7.80
2023-12-12T03:57:15.048Z,7.70
2023-12-12T03:59:42.856Z,7.70
2023-12-12T04:02:10.760Z,7.70
2023-12-12T04:04:38.736Z,7.70
2023-12-12T04:07:07.977Z,7.60
2023-12-12T04:09:36.098Z,7.60
2023-12-12T04:12:03.989Z,7.60
2023-12-12T04:14:31.808Z,7.60
2023-12-12T04:16:59.698Z,7.60
2023-12-12T04:19:27.739Z,7.60
2023-12-12T04:21:55.643Z,7.60
2023-12-12T04:24:24.888Z,7.60
2023-12-12T04:26:52.702Z,7.60
2023-12-12T04:29:20.781Z,7.60
2023-12-12T04:31:50.815Z,7.60
2023-12-12T04:34:18.729Z,7.50
2023-12-12T04:36:46.638Z,7.60
2023-12-12T04:39:16.375Z,7.50
2023-12-12T04:41:45.633Z,7.50
2023-12-12T04:44:13.719Z,7.50
2023-12-12T04:46:42.799Z,7.50
2023-12-12T04:49:11.021Z,7.50
2023-12-12T04:51:38.963Z,7.50
2023-12-12T04:54:06.859Z,7.60
2023-12-12T04:56:34.678Z,7.60
2023-12-12T04:59:03.852Z,7.60
2023-12-12T05:01:32.448Z,7.60
2023-12-12T05:04:01.166Z,7.60
2023-12-12T05:06:29.019Z,7.60
2023-12-12T05:08:56.894Z,7.60
2023-12-12T05:11:24.776Z,7.60
2023-12-12T05:13:52.639Z,7.60
2023-12-12T05:16:31.012Z,7.60
2023-12-12T05:19:00.705Z,7.60
2023-12-12T05:21:28.798Z,7.50
2023-12-12T05:23:57.275Z,7.50
2023-12-12T05:26:25.089Z,7.50
2023-12-12T05:28:53.267Z,7.50
2023-12-12T05:31:25.373Z,7.50
2023-12-12T05:33:53.667Z,7.50
2023-12-12T05:36:21.647Z,7.60
2023-12-12T05:38:51.081Z,7.60
2023-12-12T05:41:18.846Z,7.60
2023-12-12T05:43:46.660Z,7.50
2023-12-12T05:46:14.796Z,7.50
2023-12-12T05:48:44.128Z,7.60
2023-12-12T05:51:12.144Z,7.50
2023-12-12T05:53:39.945Z,7.50
2023-12-12T05:56:08.681Z,7.60
2023-12-12T05:58:36.578Z,7.60
2023-12-12T06:01:05.486Z,7.50
2023-12-12T06:03:35.802Z,7.50
2023-12-12T06:06:09.288Z,7.60
2023-12-12T06:08:37.295Z,7.50
2023-12-12T06:11:04.472Z,7.50
2023-12-12T06:13:32.474Z,7.50
2023-12-12T06:16:00.334Z,7.50
2023-12-12T06:18:29.135Z,7.50
2023-12-12T06:20:57.144Z,7.50
2023-12-12T06:23:26.280Z,7.50
2023-12-12T06:25:55.181Z,7.40
2023-12-12T06:28:23.252Z,7.40
2023-12-12T06:30:51.196Z,7.40
2023-12-12T06:33:20.122Z,7.30
2023-12-12T06:35:48.029Z,7.30
2023-12-12T06:38:15.815Z,7.30
2023-12-12T06:40:45.151Z,7.30
2023-12-12T06:43:13.178Z,7.30
2023-12-12T06:45:41.131Z,7.30
2023-12-12T06:48:08.996Z,7.20
2023-12-12T06:50:37.230Z,7.20
2023-12-12T06:53:05.004Z,7.20
2023-12-12T06:55:32.831Z,7.20
2023-12-12T06:58:04.609Z,7.10
2023-12-12T07:00:34.564Z,7.10
2023-12-12T07:03:02.622Z,7.00
2023-12-12T07:05:30.465Z,7.00
2023-12-12T07:07:58.303Z,7.00
2023-12-12T07:10:26.158Z,6.90
2023-12-12T07:12:54.065Z,6.90
2023-12-12T07:15:24.461Z,6.90
2023-12-12T07:17:52.468Z,6.80
2023-12-12T07:20:20.348Z,6.80
2023-12-12T07:22:48.160Z,6.70
2023-12-12T07:25:16.390Z,6.80
2023-12-12T07:27:44.215Z,6.80
2023-12-12T07:30:13.333Z,6.70
2023-12-12T07:32:42.766Z,6.60
2023-12-12T07:35:11.207Z,6.60
2023-12-12T07:37:39.208Z,6.60
2023-12-12T07:40:09.564Z,6.50
2023-12-12T07:42:37.471Z,6.50
2023-12-12T07:45:06.878Z,6.40
2023-12-12T07:47:40.344Z,6.40
2023-12-12T07:50:12.717Z,6.40
2023-12-12T07:52:40.966Z,6.30
2023-12-12T07:55:09.316Z,6.30
2023-12-12T07:57:37.193Z,6.30
2023-12-12T08:00:07.168Z,6.40
2023-12-12T08:02:35.374Z,6.40
2023-12-12T08:05:04.667Z,6.40
2023-12-12T08:07:34.251Z,6.40
2023-12-12T08:10:02.394Z,6.50
2023-12-12T08:12:30.225Z,6.50
2023-12-12T08:14:58.138Z,6.50
2023-12-12T08:17:26.386Z,6.50
2023-12-12T08:19:54.399Z,6.60
2023-12-12T08:22:22.514Z,6.70
2023-12-12T08:24:52.865Z,6.70
2023-12-12T08:27:20.676Z,6.80
2023-12-12T08:29:49.554Z,6.90
2023-12-12T08:32:17.657Z,7.00
2023-12-12T08:34:46.758Z,7.00
2023-12-12T08:37:13.845Z,7.10
2023-12-12T08:39:41.744Z,7.10
2023-12-12T08:42:11.488Z,7.20
2023-12-12T08:44:39.725Z,7.20
2023-12-12T08:47:07.921Z,7.20
2023-12-12T08:49:38.830Z,7.30
2023-12-12T08:52:07.983Z,7.30
2023-12-12T08:54:36.365Z,7.30
2023-12-12T08:57:04.589Z,7.30
2023-12-12T08:59:33.779Z,7.40
2023-12-12T09:02:05.043Z,7.40
2023-12-12T09:04:33.770Z,7.40
2023-12-12T09:07:01.765Z,7.50
2023-12-12T09:09:32.709Z,7.50
2023-12-12T09:12:01.851Z,7.50
2023-12-12T09:14:30.216Z,7.60
2023-12-12T09:16:59.414Z,7.60
2023-12-12T09:19:27.404Z,7.60
2023-12-12T09:21:56.947Z,7.70
2023-12-12T09:24:24.900Z,7.70
2023-12-12T09:26:52.821Z,7.70
2023-12-12T09:29:20.659Z,7.80
2023-12-12T09:31:48.524Z,7.70
2023-12-12T09:34:17.995Z,7.80
2023-12-12T09:36:45.914Z,7.80
2023-12-12T09:39:13.806Z,7.90
2023-12-12T09:41:41.643Z,7.90
2023-12-12T09:44:09.690Z,7.90
2023-12-12T09:46:37.610Z,8.00
2023-12-12T09:49:07.559Z,8.00
2023-12-12T09:51:36.925Z,8.10
2023-12-12T09:54:07.601Z,8.20
2023-12-12T09:56:36.380Z,8.20
2023-12-12T09:59:04.285Z,8.30
2023-12-12T10:01:33.043Z,8.30
2023-12-12T10:04:00.911Z,8.40
2023-12-12T10:06:31.901Z,8.50
2023-12-12T10:09:01.936Z,8.50
2023-12-12T10:11:30.052Z,8.60
2023-12-12T10:13:59.735Z,8.60
2023-12-12T10:16:27.793Z,8.60
2023-12-12T10:18:55.939Z,8.60
2023-12-12T10:21:25.459Z,8.60
2023-12-12T10:23:54.096Z,8.60
2023-12-12T10:26:27.152Z,8.60
2023-12-12T10:28:55.607Z,8.60
2023-12-12T10:31:24.092Z,8.60
2023-12-12T10:33:52.117Z,8.70
2023-12-12T10:36:20.151Z,8.70
2023-12-12T10:38:48.002Z,8.70
2023-12-12T10:41:15.493Z,8.70
2023-12-12T10:43:45.756Z,8.70
2023-12-12T10:46:14.146Z,8.70
2023-12-12T10:48:44.743Z,8.70
2023-12-12T10:51:12.950Z,8.70
2023-12-12T10:53:41.307Z,8.60
2023-12-12T10:56:09.406Z,8.60
2023-12-12T10:58:37.847Z,8.60
2023-12-12T11:01:08.035Z,8.70
2023-12-12T11:03:36.526Z,8.70
2023-12-12T11:06:04.947Z,8.70
2023-12-12T11:08:32.868Z,8.60
2023-12-12T11:11:01.304Z,8.60
2023-12-12T11:13:31.489Z,8.60
2023-12-12T11:15:59.741Z,8.60
2023-12-12T11:18:29.032Z,8.70
2023-12-12T11:20:56.974Z,8.70
2023-12-12T11:23:55.279Z,8.70
2023-12-12T11:26:24.484Z,8.70
2023-12-12T11:28:52.413Z,8.70
2023-12-12T11:31:25.078Z,8.70
2023-12-12T11:34:11.406Z,8.70
2023-12-12T11:36:54.666Z,8.70
2023-12-12T11:39:27.823Z,8.70
2023-12-12T11:41:55.726Z,8.70
2023-12-12T11:44:23.864Z,8.70
2023-12-12T11:46:52.796Z,8.70
2023-12-12T11:49:22.800Z,8.70
2023-12-12T11:51:51.510Z,8.70
2023-12-12T11:54:23.453Z,8.70
2023-12-12T11:56:56.998Z,8.70
2023-12-12T11:59:25.072Z,8.70
2023-12-12T12:01:53.039Z,8.70
2023-12-12T12:04:22.558Z,8.70
2023-12-12T12:06:51.120Z,8.70
2023-12-12T12:09:18.992Z,8.70
2023-12-12T12:11:48.833Z,8.70
2023-12-12T12:14:18.457Z,8.70
2023-12-12T12:16:46.366Z,8.70
2023-12-12T12:19:31.978Z,8.70
2023-12-12T12:22:04.381Z,8.70
2023-12-12T12:24:32.316Z,8.60
2023-12-12T12:27:00.212Z,8.60
2023-12-12T12:29:28.102Z,8.60
2023-12-12T12:31:55.980Z,8.60
2023-12-12T12:34:25.062Z,8.60
2023-12-12T12:36:57.087Z,8.70
2023-12-12T12:39:26.530Z,8.70
2023-12-12T12:41:59.507Z,8.70
2023-12-12T12:44:33.986Z,8.70
2023-12-12T12:47:01.825Z,8.70
2023-12-12T12:49:29.700Z,8.70
2023-12-12T12:51:59.271Z,8.70
2023-12-12T12:54:27.255Z,8.70
2023-12-12T12:56:55.122Z,8.70
2023-12-12T12:59:23.003Z,8.80
2023-12-12T13:01:50.879Z,8.80
2023-12-12T13:04:19.986Z,8.80
2023-12-12T13:06:48.062Z,8.80
2023-12-12T13:09:19.163Z,8.80
2023-12-12T13:11:47.075Z,8.80
2023-12-12T13:14:15.227Z,8.80
2023-12-12T13:16:45.512Z,8.80
2023-12-12T13:19:14.601Z,8.80
2023-12-12T13:21:42.661Z,8.80
2023-12-12T13:24:10.700Z,8.80
2023-12-12T13:26:39.970Z,8.80
2023-12-12T13:29:08.346Z,8.80
2023-12-12T13:31:36.173Z,8.80
2023-12-12T13:34:07.171Z,8.80
2023-12-12T13:36:35.559Z,8.80
2023-12-12T13:39:04.768Z,8.80
2023-12-12T13:41:33.564Z,8.80
2023-12-12T13:44:02.826Z,8.80
2023-12-12T13:46:31.144Z,8.90
2023-12-12T13:48:59.238Z,8.90
2023-12-12T13:51:34.420Z,8.90
2023-12-12T13:54:09.722Z,8.90
2023-12-12T13:56:37.561Z,8.90
2023-12-12T13:59:07.754Z,8.90
2023-12-12T14:01:36.087Z,8.90
2023-12-12T14:04:04.313Z,8.90
2023-12-12T14:06:32.401Z,8.90
2023-12-12T14:09:00.289Z,8.90
2023-12-12T14:11:28.155Z,9.00
2023-12-12T14:13:57.339Z,9.00
2023-12-12T14:16:29.066Z,9.00
2023-12-12T14:18:58.635Z,9.00
2023-12-12T14:21:26.828Z,9.00
2023-12-12T14:23:54.965Z,9.00
2023-12-12T14:26:24.931Z,9.00
2023-12-12T14:28:53.040Z,9.00
2023-12-12T14:31:20.971Z,9.00
2023-12-12T14:33:50.653Z,9.00
2023-12-12T14:36:19.013Z,9.00
2023-12-12T14:38:46.891Z,9.00
2023-12-12T14:41:14.697Z,9.00
2023-12-12T14:43:46.305Z,9.00
2023-12-12T14:46:14.283Z,9.00
2023-12-12T14:48:42.259Z,9.00
2023-12-12T14:51:12.892Z,9.10
2023-12-12T14:53:42.072Z,9.10
2023-12-12T14:56:11.977Z,9.10
2023-12-12T14:58:39.837Z,9.10
2023-12-12T15:01:08.648Z,9.10
2023-12-12T15:03:36.669Z,9.10
2023-12-12T15:06:05.322Z,9.10
2023-12-12T15:08:34.612Z,9.10
2023-12-12T15:11:02.468Z,9.10
2023-12-12T15:13:30.265Z,9.10
2023-12-12T15:15:58.191Z,9.10
2023-12-12T15:18:26.102Z,9.10
2023-12-12T15:20:53.993Z,9.10
2023-12-12T15:23:22.439Z,9.10
2023-12-12T15:25:51.672Z,9.10
2023-12-12T15:28:25.480Z,9.00
2023-12-12T15:30:56.003Z,9.00
2023-12-12T15:33:24.318Z,9.00
2023-12-12T15:35:52.300Z,9.00
2023-12-12T15:38:20.167Z,9.00
2023-12-12T15:40:48.133Z,9.00
2023-12-12T15:43:17.519Z,9.00
2023-12-12T15:45:45.420Z,9.00
2023-12-12T15:48:13.476Z,9.00
2023-12-12T15:50:41.522Z,9.00
2023-12-12T15:53:09.436Z,9.00
2023-12-12T15:55:37.342Z,9.00
2023-12-12T15:58:05.206Z,9.00
2023-12-12T16:00:34.534Z,9.00
2023-12-12T16:03:02.496Z,9.00
2023-12-12T16:05:32.527Z,9.00
2023-12-12T16:08:02.261Z,9.00
2023-12-12T16:10:30.203Z,9.00
2023-12-12T16:12:58.104Z,9.00
2023-12-12T16:15:25.954Z,9.00
2023-12-12T16:17:55.212Z,9.00
2023-12-12T16:20:23.251Z,9.00
2023-12-12T16:22:51.368Z,9.00
2023-12-12T16:25:19.343Z,9.00
2023-12-12T16:27:51.900Z,9.00
2023-12-12T16:30:21.392Z,9.00
2023-12-12T16:32:54.169Z,9.00
2023-12-12T16:35:24.837Z,9.00
2023-12-12T16:37:52.836Z,9.00
2023-12-12T16:40:21.006Z,9.00
2023-12-12T16:42:48.874Z,9.00
2023-12-12T16:45:17.063Z,9.10
2023-12-12T16:47:45.489Z,9.00
2023-12-12T16:50:14.145Z,9.00
2023-12-12T16:52:43.575Z,9.00
2023-12-12T16:55:11.634Z,9.00
2023-12-12T16:57:39.450Z,9.00
2023-12-12T17:00:11.953Z,9.00
2023-12-12T17:02:39.983Z,9.00
2023-12-12T17:05:08.471Z,9.00
2023-12-12T17:07:36.683Z,9.00
2023-12-12T17:10:09.158Z,9.00
2023-12-12T17:12:37.438Z,9.00
2023-12-12T17:15:07.175Z,9.10
2023-12-12T17:17:35.789Z,9.10
2023-12-12T17:20:04.428Z,9.00
2023-12-12T17:22:32.435Z,9.00
2023-12-12T17:25:00.326Z,9.00
2023-12-12T17:27:29.658Z,9.00
2023-12-12T17:29:57.648Z,9.00
2023-12-12T17:32:25.432Z,9.00
2023-12-12T17:34:54.168Z,9.00
2023-12-12T17:37:22.224Z,9.00
2023-12-12T17:39:50.031Z,9.00
2023-12-12T17:42:17.830Z,9.00
2023-12-12T17:44:46.971Z,9.00
2023-12-12T17:47:14.913Z,9.10
2023-12-12T17:49:43.500Z,9.10
2023-12-12T17:52:11.837Z,9.10
2023-12-12T17:54:39.760Z,9.10
2023-12-12T17:57:07.614Z,9.10
2023-12-12T17:59:36.048Z,9.10
2023-12-12T18:02:05.708Z,9.10
2023-12-12T18:04:33.741Z,9.10
2023-12-12T18:07:01.732Z,9.10
2023-12-12T18:09:30.584Z,9.10
2023-12-12T18:11:58.591Z,9.10
2023-12-12T18:14:26.758Z,9.10
2023-12-12T18:16:54.611Z,9.10
2023-12-12T18:19:24.492Z,9.10
2023-12-12T18:21:52.400Z,9.10
2023-12-12T18:24:21.097Z,9.10
2023-12-12T18:26:52.772Z,9.20
2023-12-12T18:29:21.749Z,9.10
2023-12-12T18:31:50.017Z,9.10
2023-12-12T18:34:18.192Z,9.10
2023-12-12T18:36:47.554Z,9.10
2023-12-12T18:39:16.103Z,9.10
2023-12-12T18:41:45.341Z,9.10
2023-12-12T18:44:13.738Z,9.10
2023-12-12T18:46:42.378Z,9.10
2023-12-12T18:49:14.007Z,9.10
2023-12-12T18:51:43.164Z,9.10
2023-12-12T18:54:12.402Z,9.20
2023-12-12T18:56:40.234Z,9.10
2023-12-12T18:59:08.064Z,9.10
2023-12-12T19:01:35.963Z,9.10
2023-12-12T19:04:04.256Z,9.10
2023-12-12T19:06:32.276Z,9.10
2023-12-12T19:09:00.082Z,9.10
2023-12-12T19:11:29.351Z,9.10
2023-12-12T19:13:57.217Z,9.10
2023-12-12T19:16:25.637Z,9.20
2023-12-12T19:18:54.266Z,9.20
2023-12-12T19:21:22.165Z,9.20
2023-12-12T19:23:49.997Z,9.20
2023-12-12T19:26:19.029Z,9.20
2023-12-12T19:28:48.325Z,9.20
2023-12-12T19:31:16.270Z,9.20
2023-12-12T19:33:44.654Z,9.20
2023-12-12T19:36:12.813Z,9.20
2023-12-12T19:38:40.726Z,9.20
2023-12-12T19:41:09.523Z,9.20
2023-12-12T19:43:37.480Z,9.20
2023-12-12T19:46:09.632Z,9.20
2023-12-12T19:48:38.235Z,9.20
2023-12-12T19:51:07.872Z,9.20
2023-12-12T19:53:35.793Z,9.20
2023-12-12T19:56:04.451Z,9.30
2023-12-12T19:58:32.351Z,9.30
2023-12-12T20:01:00.273Z,9.20
2023-12-12T20:03:29.725Z,9.20
2023-12-12T20:05:57.832Z,9.10
2023-12-12T20:08:25.758Z,9.10
2023-12-12T20:10:53.926Z,9.10
2023-12-12T20:13:21.905Z,9.10
2023-12-12T20:15:52.138Z,9.10
2023-12-12T20:18:20.988Z,9.10
2023-12-12T20:20:50.185Z,9.00
2023-12-12T20:23:18.589Z,9.00
2023-12-12T20:25:46.713Z,9.00
2023-12-12T20:28:14.605Z,9.00
2023-12-12T20:30:42.538Z,9.10
2023-12-12T20:33:10.541Z,9.10
2023-12-12T20:35:38.440Z,9.10
2023-12-12T20:38:07.624Z,9.10
2023-12-12T20:40:35.445Z,9.10
2023-12-12T20:43:03.936Z,9.10
2023-12-12T20:45:32.915Z,9.00
2023-12-12T20:48:00.820Z,9.00
2023-12-12T20:50:28.846Z,9.00
2023-12-12T20:52:56.649Z,9.00
2023-12-12T20:55:25.829Z,9.00
2023-12-12T20:57:57.544Z,9.00
2023-12-12T21:00:28.639Z,9.00
2023-12-12T21:02:56.773Z,8.90
2023-12-12T21:05:25.494Z,8.90
2023-12-12T21:07:53.591Z,8.90
2023-12-12T21:10:21.603Z,8.90
2023-12-12T21:12:51.018Z,8.90
2023-12-12T21:15:19.162Z,8.90
2023-12-12T21:17:50.862Z,8.80
2023-12-12T21:20:19.333Z,8.80
2023-12-12T21:22:47.889Z,8.70
2023-12-12T21:25:15.893Z,8.70
2023-12-12T21:27:44.212Z,8.70
2023-12-12T21:30:14.012Z,8.70
2023-12-12T21:32:42.586Z,8.70
2023-12-12T21:35:11.235Z,8.70
2023-12-12T21:37:39.373Z,8.60
2023-12-12T21:40:11.381Z,8.60
2023-12-12T21:42:39.406Z,8.60
2023-12-12T21:45:07.948Z,8.60
2023-12-12T21:47:37.379Z,8.60
2023-12-12T21:50:06.178Z,8.60
2023-12-12T21:52:34.252Z,8.60
2023-12-12T21:55:03.274Z,8.60
2023-12-12T21:57:31.388Z,8.50
2023-12-12T21:59:59.607Z,8.50
2023-12-12T22:02:27.496Z,8.50
2023-12-12T22:04:56.727Z,8.40
2023-12-12T22:07:24.666Z,8.40
2023-12-12T22:09:52.499Z,8.40
2023-12-12T22:12:20.372Z,8.40
2023-12-12T22:14:48.236Z,8.30
2023-12-12T22:17:17.362Z,8.30
2023-12-12T22:19:57.755Z,8.20
2023-12-12T22:22:32.758Z,8.20
2023-12-12T22:25:00.840Z,8.10
2023-12-12T22:27:30.426Z,8.00
2023-12-12T22:29:58.474Z,8.00
2023-12-12T22:32:26.517Z,7.90
2023-12-12T22:34:54.785Z,7.90
2023-12-12T22:37:23.022Z,7.90
2023-12-12T22:39:52.202Z,7.90
2023-12-12T22:42:21.233Z,7.80
2023-12-12T22:44:49.130Z,7.80
2023-12-12T22:47:16.948Z,7.90
2023-12-12T22:49:44.846Z,7.80
2023-12-12T22:52:12.744Z,7.80
2023-12-12T22:54:40.588Z,7.80
2023-12-12T22:57:09.960Z,7.80
2023-12-12T22:59:37.789Z,7.70
2023-12-12T23:02:06.034Z,7.70
2023-12-12T23:04:36.362Z,7.70
2023-12-12T23:07:06.368Z,7.70
2023-12-12T23:09:34.285Z,7.60
2023-12-12T23:12:02.611Z,7.60
2023-12-12T23:14:31.812Z,7.60
2023-12-12T23:16:59.629Z,7.60
2023-12-12T23:19:27.633Z,7.60
2023-12-12T23:21:55.576Z,7.60
2023-12-12T23:24:23.478Z,7.60
2023-12-12T23:26:51.277Z,7.60
2023-12-12T23:29:19.089Z,7.60
2023-12-12T23:31:48.529Z,7.60
2023-12-12T23:34:16.544Z,7.60
2023-12-12T23:36:44.633Z,7.70
2023-12-12T23:39:12.504Z,7.60
2023-12-12T23:41:46.067Z,7.60
2023-12-12T23:44:16.185Z,7.60
2023-12-12T23:46:44.183Z,7.60
2023-12-12T23:49:16.180Z,7.60
2023-12-12T23:51:44.229Z,7.70
2023-12-12T23:54:12.168Z,7.70
2023-12-12T23:56:40.167Z,7.70
2023-12-12T23:59:07.966Z,7.80
